Aérodrome :
LOGIN :

S'inscrire | Disclaimer

   EN    FR    IT 

 










Légende :    VFR   VFR Marginal   IFR   IFR Intensif   IFR Très Intensif
Visi : 
Plafond : 
>= 8 km
>= 3000ft
5 à 8 km
1000 à 3000 ft
1500m à 5 km
500 à 1000 ft
800 à 1500m
200 à 500 ft
< 800m
< 200 ft
Symboles :   Orages  Brouillard  Fortes neiges  Fortes précipitations  Vent > 20 kt
SIGMETs :   Divers  Orages  Givrage  Turbulence  Onde Orograph.  Cendres Volcan.







- Altitude de l'aérodrome : -11 ft
- Code IATA : AMS


EHAM - Amsterdam Schiphol

DERNIER METAR :
  • 270355Z 10008KT CAVOK 17/12 Q1018 NOSIG

METARs EXPIRÉS :
  • 270325Z 09008KT CAVOK 17/12 Q1018 NOSIG
  • 270255Z 10009KT CAVOK 18/12 Q1018 NOSIG
  • 270225Z 10009KT CAVOK 18/12 Q1017 NOSIG
  • 270155Z 11010KT 080V140 CAVOK 18/12 Q1017 NOSIG
  • 270125Z 11010KT 080V140 CAVOK 18/12 Q1017 NOSIG

TAF COR TAF EHAM
Valide du 27 à 00h jusqu'au 28 à 06h UTC


262307Z 2700/2806 11010KT CAVOK
BECMG 2706/2709 14013KT
BECMG 2716/2719 VRB03KT
PROB30
TEMPO 2723/2804 4000 TSRA SCT060CB
Pas de NOTAMs connus pour ce terrain.



MET'MAP, la Météo Aéronautique d'un coup d'oeil ! - Copyright ORBIFLY Décembre 2007 - Disclaimer

ORBIFLY MET'MAP TEAM :

Programmation & Développement : Alexandra Zaïnal
Conception & Développement : Baudouin d'Aumeries
Co-Programmation & Développement : Marc-Olivier Méhu
Soutien technique & logistique : Manuel Goepfert

Contact : metmap@orbifly.com




SOURCES & CREDITS :

   NOAA